Time;durP1;ratioP1;P1;durP2;ratioP2;P2;SDS_P1;SDS_P2;PMS_P1;PMS_P2;Temp;Humidity;BMP_temperature;BMP_pressure;BME280_temperature;BME280_humidity;BME280_pressure;Samples;Min_cycle;Max_cycle;Signal;HPM_P1;HPM_P2
2022/05/06 00:02:52;;;;;;;3.25;3.03;;;;;;;;;;12482783;28;20041;-81
2022/05/06 00:08:53;;;;;;;2.58;2.38;;;;;;;;;;12464769;28;20179;-81
2022/05/06 00:14:56;;;;;;;2.35;2.25;;;;;;;;;;12481597;28;20044;-80
2022/05/06 00:20:58;;;;;;;;;;;;;;;;;;12500135;28;20057;-80
2022/05/06 00:27:00;;;;;;;2.97;2.78;;;;;;;;;;12465666;28;19916;-81
2022/05/06 00:33:01;;;;;;;2.77;2.57;;;;;;;;;;12481587;28;20033;-80
2022/05/06 00:39:03;;;;;;;3.23;3.00;;;;;;;;;;12498686;28;20029;-81
2022/05/06 00:45:08;;;;;;;2.50;2.25;;;;;;;;;;12498199;28;20048;-80
2022/05/06 00:51:09;;;;;;;2.37;1.90;;;;;;;;;;12498060;28;20395;-81
2022/05/06 00:57:11;;;;;;;2.90;2.70;;;;;;;;;;12480070;28;20056;-80
2022/05/06 01:03:13;;;;;;;3.33;3.03;;;;;;;;;;12496957;28;20052;-80
2022/05/06 01:09:16;;;;;;;3.00;2.80;;;;;;;;;;12479446;28;20036;-81
2022/05/06 01:15:22;;;;;;;3.92;3.63;;;;;;;;;;12496411;28;20041;-81
2022/05/06 01:21:32;;;;;;;4.10;3.70;;;;;;;;;;12478971;28;20398;-80
2022/05/06 01:27:37;;;;;;;3.25;3.00;;;;;;;;;;12462225;28;20041;-80
2022/05/06 01:33:39;;;;;;;3.60;3.20;;;;;;;;;;12495917;28;20037;-80
2022/05/06 01:39:43;;;;;;;3.08;2.88;;;;;;;;;;12495838;28;20626;-80
2022/05/06 01:45:48;;;;;;;3.58;3.28;;;;;;;;;;12461452;28;20041;-80
2022/05/06 01:51:51;;;;;;;2.75;2.55;;;;;;;;;;12461417;28;20367;-80
2022/05/06 01:57:58;;;;;;;2.88;2.67;;;;;;;;;;12461729;28;20029;-80
2022/05/06 02:10:23;;;;;;;3.28;2.97;;;;;;;;;;12477580;28;20056;-80
2022/05/06 02:16:31;;;;;;;3.28;2.80;;;;;;;;;;12462027;28;20040;-81
2022/05/06 02:23:02;;;;;;;2.65;2.47;;;;;;;;;;12485331;28;20521;-80
2022/05/06 02:29:09;;;;;;;3.80;3.60;;;;;;;;;;12476530;28;20029;-80
2022/05/06 02:35:15;;;;;;;3.35;3.03;;;;;;;;;;12484347;28;20045;-80
2022/05/06 02:41:18;;;;;;;3.97;3.67;;;;;;;;;;12486279;28;20041;-80
2022/05/06 02:47:31;;;;;;;3.92;3.08;;;;;;;;;;12486755;28;20041;-80
2022/05/06 02:53:33;;;;;;;5.03;4.60;;;;;;;;;;12485777;28;20034;-80
2022/05/06 02:59:37;;;;;;;3.60;3.25;;;;;;;;;;12485378;28;20383;-80
2022/05/06 03:05:39;;;;;;;3.97;3.67;;;;;;;;;;12502790;28;20044;-81
2022/05/06 03:11:41;;;;;;;4.18;3.88;;;;;;;;;;12484886;28;20049;-80
2022/05/06 03:17:52;;;;;;;3.65;3.35;;;;;;;;;;12484277;28;20064;-81
2022/05/06 03:23:54;;;;;;;3.33;3.13;;;;;;;;;;12468578;28;20046;-81
2022/05/06 03:29:57;;;;;;;3.80;3.50;;;;;;;;;;12484248;28;20037;-80
2022/05/06 03:35:59;;;;;;;3.20;2.95;;;;;;;;;;12467446;28;20029;-80
2022/05/06 03:42:04;;;;;;;4.05;2.97;;;;;;;;;;12483745;28;20057;-81
2022/05/06 03:48:07;;;;;;;3.83;3.53;;;;;;;;;;12468059;28;20376;-80
2022/05/06 03:54:13;;;;;;;3.50;3.20;;;;;;;;;;12471114;28;20037;-81
2022/05/06 04:00:16;;;;;;;3.20;3.00;;;;;;;;;;12485515;28;20036;-81
2022/05/06 04:06:42;;;;;;;3.60;3.30;;;;;;;;;;12488546;28;20041;-81
2022/05/06 04:12:46;;;;;;;3.78;3.47;;;;;;;;;;12485273;28;20374;-81
2022/05/06 04:18:48;;;;;;;3.22;3.03;;;;;;;;;;12469006;28;20057;-81
2022/05/06 04:24:50;;;;;;;;;;;;;;;;;;12484472;28;20049;-81
2022/05/06 04:30:54;;;;;;;4.75;4.35;;;;;;;;;;12472546;28;19920;-82
2022/05/06 04:37:13;;;;;;;4.47;4.18;;;;;;;;;;12485802;28;20029;-81
2022/05/06 04:43:20;;;;;;;4.20;3.90;;;;;;;;;;12486876;28;20049;-82
2022/05/06 04:49:25;;;;;;;3.13;2.80;;;;;;;;;;12468213;28;20041;-81
2022/05/06 04:55:27;;;;;;;3.28;3.08;;;;;;;;;;12466128;28;20037;-81
2022/05/06 05:01:29;;;;;;;3.00;2.80;;;;;;;;;;12465148;28;20036;-82
2022/05/06 05:07:31;;;;;;;3.75;3.45;;;;;;;;;;12480681;28;20052;-82
2022/05/06 05:13:34;;;;;;;4.13;3.83;;;;;;;;;;12486259;28;20033;-81
2022/05/06 05:19:39;;;;;;;3.65;3.35;;;;;;;;;;12481298;28;20046;-81
2022/05/06 05:25:41;;;;;;;5.10;4.70;;;;;;;;;;12463744;28;20371;-82
2022/05/06 05:31:43;;;;;;;5.32;4.93;;;;;;;;;;12464415;28;20040;-82
2022/05/06 05:37:46;;;;;;;4.50;4.20;;;;;;;;;;12483256;28;20036;-80
2022/05/06 05:50:09;;;;;;;5.72;5.32;;;;;;;;;;12478796;28;20041;-80
2022/05/06 05:56:11;;;;;;;6.25;5.75;;;;;;;;;;12490251;28;20522;-81
2022/05/06 06:02:13;;;;;;;6.93;5.85;;;;;;;;;;12492635;28;20485;-81
2022/05/06 06:08:19;;;;;;;5.93;5.43;;;;;;;;;;12502036;28;20052;-81
2022/05/06 06:14:23;;;;;;;5.40;4.97;;;;;;;;;;12541085;28;20033;-81
2022/05/06 06:20:26;;;;;;;7.40;6.70;;;;;;;;;;12497757;28;20049;-81
2022/05/06 06:26:28;;;;;;;4.20;3.90;;;;;;;;;;12476213;28;20270;-82
2022/05/06 06:32:34;;;;;;;5.15;4.78;;;;;;;;;;12477129;28;20029;-81
2022/05/06 06:38:37;;;;;;;5.75;5.25;;;;;;;;;;12460004;28;20045;-81
2022/05/06 06:44:38;;;;;;;6.70;6.07;;;;;;;;;;12479870;28;20045;-82
2022/05/06 06:50:58;;;;;;;6.00;5.50;;;;;;;;;;12464886;28;20033;-82
2022/05/06 06:57:03;;;;;;;4.53;4.15;;;;;;;;;;12463886;28;20040;-82
2022/05/06 07:03:05;;;;;;;4.93;4.50;;;;;;;;;;12493880;28;20490;-82
2022/05/06 07:15:29;;;;;;;6.03;5.45;;;;;;;;;;12495360;28;20026;-82
2022/05/06 07:21:31;;;;;;;6.72;6.10;;;;;;;;;;12436724;28;20056;-82
2022/05/06 07:27:36;;;;;;;5.97;5.37;;;;;;;;;;12437989;28;20050;-82
2022/05/06 07:33:38;;;;;;;5.35;4.53;;;;;;;;;;12437382;28;20029;-82
2022/05/06 07:39:40;;;;;;;5.20;4.80;;;;;;;;;;12437270;28;20034;-82
2022/05/06 07:45:43;;;;;;;8.55;7.70;;;;;;;;;;12436028;28;20046;-82
2022/05/06 07:51:44;;;;;;;4.87;4.47;;;;;;;;;;12452271;28;20502;-82
2022/05/06 07:57:47;;;;;;;4.93;4.53;;;;;;;;;;12451878;28;20033;-82
2022/05/06 08:10:08;;;;;;;3.60;3.40;;;;;;;;;;12450985;28;20292;-81
2022/05/06 08:16:10;;;;;;;4.03;3.73;;;;;;;;;;12433751;28;20490;-81
2022/05/06 08:22:12;;;;;;;7.82;7.13;;;;;;;;;;12460908;28;20062;-82
2022/05/06 08:28:15;;;;;;;7.97;7.17;;;;;;;;;;12491309;28;20048;-82
2022/05/06 08:34:18;;;;;;;8.10;7.40;;;;;;;;;;12467365;28;20034;-82
2022/05/06 08:40:21;;;;;;;4.00;3.67;;;;;;;;;;12481197;28;20497;-82
2022/05/06 08:52:44;;;;;;;6.85;6.32;;;;;;;;;;12480384;28;20335;-82
2022/05/06 08:58:46;;;;;;;6.97;6.38;;;;;;;;;;12481780;28;20029;-82
2022/05/06 09:04:48;;;;;;;6.80;6.23;;;;;;;;;;12497795;28;20042;-81
2022/05/06 09:11:03;;;;;;;5.57;5.07;;;;;;;;;;12479742;28;20037;-82
2022/05/06 09:17:21;;;;;;;9.48;8.68;;;;;;;;;;12464872;28;20045;-82
2022/05/06 09:23:28;;;;;;;6.28;5.78;;;;;;;;;;12499990;28;20042;-84
2022/05/06 09:29:31;;;;;;;4.78;4.38;;;;;;;;;;12469023;28;20041;-81
2022/05/06 09:35:32;;;;;;;6.53;6.03;;;;;;;;;;12503912;28;20048;-81
2022/05/06 09:41:37;;;;;;;6.70;6.17;;;;;;;;;;12484686;28;20034;-81
2022/05/06 09:47:40;;;;;;;6.72;6.22;;;;;;;;;;12483780;28;20068;-82
2022/05/06 09:53:41;;;;;;;4.22;3.88;;;;;;;;;;12481469;28;20040;-80
2022/05/06 09:59:43;;;;;;;6.20;5.03;;;;;;;;;;12500828;28;20041;-81
2022/05/06 10:05:45;;;;;;;6.00;5.53;;;;;;;;;;12480933;28;20045;-81
2022/05/06 10:11:48;;;;;;;5.13;4.72;;;;;;;;;;12496036;28;20038;-81
2022/05/06 10:17:50;;;;;;;5.25;4.35;;;;;;;;;;12478982;28;20507;-81
2022/05/06 10:23:53;;;;;;;6.50;6.00;;;;;;;;;;12461266;28;20046;-81
2022/05/06 10:36:41;;;;;;;3.85;3.55;;;;;;;;;;12478911;28;20502;-82
2022/05/06 10:42:43;;;;;;;4.80;4.47;;;;;;;;;;12494413;28;20502;-82
2022/05/06 10:48:46;;;;;;;4.53;4.20;;;;;;;;;;12477433;28;20046;-82
2022/05/06 10:54:49;;;;;;;4.15;3.50;;;;;;;;;;12481361;28;20052;-82
2022/05/06 11:00:50;;;;;;;;;;;;;;;;;;12485533;28;20026;-82
2022/05/06 11:07:12;;;;;;;3.30;3.00;;;;;;;;;;12502961;28;19917;-82
2022/05/06 11:13:14;;;;;;;;;;;;;;;;;;12502019;28;20040;-82
2022/05/06 11:19:32;;;;;;;5.85;5.35;;;;;;;;;;12503719;28;20286;-82
2022/05/06 11:25:44;;;;;;;3.40;3.10;;;;;;;;;;12469090;28;20050;-82
2022/05/06 11:31:46;;;;;;;3.45;3.22;;;;;;;;;;12502088;28;20506;-81
2022/05/06 11:37:50;;;;;;;4.78;4.30;;;;;;;;;;12485517;28;20030;-82
2022/05/06 11:43:52;;;;;;;4.83;4.43;;;;;;;;;;12484601;28;20041;-82
2022/05/06 11:49:53;;;;;;;3.77;3.47;;;;;;;;;;12485540;28;20033;-82
2022/05/06 11:55:56;;;;;;;4.50;4.10;;;;;;;;;;12468244;28;20029;-82
2022/05/06 12:02:05;;;;;;;3.80;3.50;;;;;;;;;;12483522;28;20034;-82
2022/05/06 12:08:07;;;;;;;3.65;3.35;;;;;;;;;;12467182;28;20398;-82
2022/05/06 12:14:12;;;;;;;2.53;2.33;;;;;;;;;;12502975;28;20386;-82
2022/05/06 12:20:33;;;;;;;3.20;2.90;;;;;;;;;;12489086;28;20061;-82
2022/05/06 12:26:38;;;;;;;4.32;4.00;;;;;;;;;;12482981;28;20041;-82
2022/05/06 12:32:41;;;;;;;4.10;3.70;;;;;;;;;;12482423;28;20040;-82
2022/05/06 12:38:43;;;;;;;3.25;3.05;;;;;;;;;;12481863;28;20368;-82
2022/05/06 12:44:46;;;;;;;4.28;3.88;;;;;;;;;;12481853;28;20052;-82
2022/05/06 12:50:48;;;;;;;4.32;3.65;;;;;;;;;;12482158;28;20503;-82
2022/05/06 12:56:50;;;;;;;4.07;3.70;;;;;;;;;;12498258;28;20052;-82
2022/05/06 13:02:52;;;;;;;3.17;2.97;;;;;;;;;;12463345;28;20371;-82
2022/05/06 13:08:54;;;;;;;3.15;2.92;;;;;;;;;;12479319;28;20037;-82
2022/05/06 13:14:56;;;;;;;3.07;2.77;;;;;;;;;;12478460;28;20482;-82
2022/05/06 13:20:57;;;;;;;2.60;2.40;;;;;;;;;;12432381;28;20054;-81
2022/05/06 13:26:59;;;;;;;4.23;3.60;;;;;;;;;;12414159;28;20041;-81
2022/05/06 13:33:01;;;;;;;5.63;3.03;;;;;;;;;;12447469;28;20037;-82
2022/05/06 13:39:03;;;;;;;3.20;2.90;;;;;;;;;;12447108;28;20029;-81
2022/05/06 13:45:05;;;;;;;2.80;2.60;;;;;;;;;;12448243;28;20037;-81
2022/05/06 13:51:06;;;;;;;2.30;2.10;;;;;;;;;;12446952;28;20034;-81
2022/05/06 14:03:28;;;;;;;4.38;3.13;;;;;;;;;;12447538;28;20054;-81
2022/05/06 14:09:30;;;;;;;2.10;1.90;;;;;;;;;;12446698;28;20395;-81
2022/05/06 14:15:32;;;;;;;2.70;1.80;;;;;;;;;;12431443;28;20038;-82
2022/05/06 14:21:34;;;;;;;2.70;1.80;;;;;;;;;;12450991;28;20053;-81
2022/05/06 14:27:36;;;;;;;1.97;1.73;;;;;;;;;;12478236;28;20053;-81
2022/05/06 14:33:37;;;;;;;2.73;2.20;;;;;;;;;;12487221;28;20486;-81
2022/05/06 14:39:39;;;;;;;1.43;1.33;;;;;;;;;;12504911;28;20034;-82
2022/05/06 14:45:41;;;;;;;1.80;1.70;;;;;;;;;;12487150;28;20497;-83
2022/05/06 14:51:43;;;;;;;1.80;1.70;;;;;;;;;;12486515;28;20494;-82
2022/05/06 14:57:45;;;;;;;2.70;1.80;;;;;;;;;;12503313;28;20390;-82
2022/05/06 15:03:46;;;;;;;1.90;1.63;;;;;;;;;;12503239;28;20041;-82
2022/05/06 15:09:48;;;;;;;1.60;1.20;;;;;;;;;;12469210;28;20268;-83
2022/05/06 15:15:50;;;;;;;2.00;1.80;;;;;;;;;;12503459;28;20041;-83
2022/05/06 15:21:52;;;;;;;1.70;1.60;;;;;;;;;;12503172;28;20057;-82
2022/05/06 15:27:53;;;;;;;1.35;1.25;;;;;;;;;;12468292;28;20512;-83
2022/05/06 15:33:55;;;;;;;1.20;1.20;;;;;;;;;;12502227;28;20026;-82
2022/05/06 15:39:57;;;;;;;1.20;1.10;;;;;;;;;;12501597;28;20032;-83
2022/05/06 15:45:59;;;;;;;2.00;1.57;;;;;;;;;;12467641;28;20072;-83
2022/05/06 15:52:01;;;;;;;2.20;1.40;;;;;;;;;;12483344;28;20026;-83
2022/05/06 15:58:02;;;;;;;1.40;1.30;;;;;;;;;;12500633;28;20036;-83
2022/05/06 16:04:04;;;;;;;1.87;1.70;;;;;;;;;;12483187;28;20041;-82
2022/05/06 16:10:07;;;;;;;2.47;1.65;;;;;;;;;;12484070;28;20041;-84
2022/05/06 16:16:09;;;;;;;1.77;1.60;;;;;;;;;;12501159;28;20036;-83
2022/05/06 16:22:11;;;;;;;1.60;1.50;;;;;;;;;;12465485;28;20411;-84
2022/05/06 16:28:13;;;;;;;1.77;1.67;;;;;;;;;;12482525;28;20501;-83
2022/05/06 16:40:35;;;;;;;1.70;1.60;;;;;;;;;;12502848;28;20041;-83
2022/05/06 16:46:37;;;;;;;1.65;1.55;;;;;;;;;;12484955;28;20045;-83
2022/05/06 16:52:40;;;;;;;1.60;1.50;;;;;;;;;;12483952;28;20041;-83
2022/05/06 16:58:42;;;;;;;1.75;1.65;;;;;;;;;;12467622;28;20029;-83
2022/05/06 17:04:43;;;;;;;1.73;1.23;;;;;;;;;;12499385;28;20045;-83
2022/05/06 17:10:48;;;;;;;2.08;1.50;;;;;;;;;;12498204;28;20025;-83
2022/05/06 17:16:50;;;;;;;2.45;2.25;;;;;;;;;;12481818;28;20048;-82
2022/05/06 17:22:51;;;;;;;1.90;1.80;;;;;;;;;;12509704;28;20049;-82
2022/05/06 17:28:53;;;;;;;1.80;1.70;;;;;;;;;;12512219;28;20041;-82
2022/05/06 17:34:55;;;;;;;1.60;1.50;;;;;;;;;;12487719;28;20026;-82
2022/05/06 17:40:56;;;;;;;1.93;1.40;;;;;;;;;;12485835;28;20037;-82
2022/05/06 17:46:58;;;;;;;1.40;1.30;;;;;;;;;;12504363;28;20045;-82
2022/05/06 17:53:00;;;;;;;1.50;1.40;;;;;;;;;;12480619;28;20042;-82
2022/05/06 17:59:06;;;;;;;1.60;1.50;;;;;;;;;;12496469;28;20033;-82
2022/05/06 18:05:08;;;;;;;2.40;2.20;;;;;;;;;;12496920;28;20042;-82
2022/05/06 18:11:11;;;;;;;2.05;1.73;;;;;;;;;;12497528;28;20029;-82
2022/05/06 18:17:14;;;;;;;;;;;;;;;;;;12496286;28;20065;-82
2022/05/06 18:23:16;;;;;;;4.32;3.67;;;;;;;;;;12477987;28;19913;-81
2022/05/06 18:29:17;;;;;;;3.00;2.63;;;;;;;;;;12494449;28;20040;-81
2022/05/06 18:35:19;;;;;;;3.10;2.80;;;;;;;;;;12477153;28;20030;-82
2022/05/06 18:41:23;;;;;;;3.30;2.97;;;;;;;;;;12461217;28;20040;-81
2022/05/06 18:47:24;;;;;;;6.97;6.38;;;;;;;;;;12477575;28;20045;-81
2022/05/06 18:53:26;;;;;;;3.17;2.97;;;;;;;;;;12476509;28;20037;-81
2022/05/06 18:59:28;;;;;;;3.42;3.13;;;;;;;;;;12477730;28;20110;-81
2022/05/06 19:05:32;;;;;;;4.00;3.23;;;;;;;;;;12476070;28;20076;-81
2022/05/06 19:11:36;;;;;;;2.72;2.50;;;;;;;;;;12495426;28;20769;-82
2022/05/06 19:17:38;;;;;;;3.15;2.85;;;;;;;;;;12487016;28;20064;-81
2022/05/06 19:30:01;;;;;;;1.85;1.73;;;;;;;;;;12488272;28;20426;-81
2022/05/06 19:36:02;;;;;;;;;;;;;;;;;;12487045;28;20490;-81
2022/05/06 19:42:04;;;;;;;2.95;2.65;;;;;;;;;;12504659;28;19908;-81
2022/05/06 19:48:06;;;;;;;2.77;2.57;;;;;;;;;;12503501;28;20049;-82
2022/05/06 19:54:08;;;;;;;3.00;2.80;;;;;;;;;;12469121;28;20283;-81
2022/05/06 20:00:10;;;;;;;3.70;3.40;;;;;;;;;;12486094;28;20040;-82
2022/05/06 20:06:14;;;;;;;3.40;3.10;;;;;;;;;;12469226;28;20041;-82
2022/05/06 20:12:17;;;;;;;4.40;3.83;;;;;;;;;;12485912;28;20042;-82
2022/05/06 20:18:19;;;;;;;4.07;3.67;;;;;;;;;;12485339;28;20076;-82
2022/05/06 20:24:21;;;;;;;4.13;3.57;;;;;;;;;;12484834;28;20060;-82
2022/05/06 20:30:22;;;;;;;5.03;3.90;;;;;;;;;;12484175;28;20033;-81
2022/05/06 20:36:24;;;;;;;3.83;3.53;;;;;;;;;;12515171;28;20041;-82
2022/05/06 20:42:26;;;;;;;4.13;3.73;;;;;;;;;;12523022;28;20065;-82
2022/05/06 20:48:27;;;;;;;4.10;3.80;;;;;;;;;;12487192;28;20052;-82
2022/05/06 20:54:29;;;;;;;4.00;3.60;;;;;;;;;;12468835;28;20045;-82
2022/05/06 21:00:31;;;;;;;3.37;3.13;;;;;;;;;;12483642;28;20041;-82
2022/05/06 21:06:33;;;;;;;6.13;4.60;;;;;;;;;;12483056;28;20524;-81
2022/05/06 21:18:55;;;;;;;4.70;4.30;;;;;;;;;;12500072;28;20494;-82
2022/05/06 21:24:57;;;;;;;5.27;4.77;;;;;;;;;;12480832;28;20045;-83
2022/05/06 21:30:59;;;;;;;4.05;3.75;;;;;;;;;;12498373;28;20121;-82
2022/05/06 21:37:01;;;;;;;4.43;4.03;;;;;;;;;;12502563;28;20029;-82
2022/05/06 21:43:02;;;;;;;4.27;3.90;;;;;;;;;;12471777;28;20041;-83
2022/05/06 21:49:04;;;;;;;3.77;3.47;;;;;;;;;;12485766;28;20076;-82
2022/05/06 21:55:06;;;;;;;4.50;4.10;;;;;;;;;;12484512;28;20025;-81
2022/05/06 22:01:08;;;;;;;4.40;3.80;;;;;;;;;;12501172;28;20044;-83
2022/05/06 22:07:10;;;;;;;4.78;3.60;;;;;;;;;;12500398;28;20382;-82
2022/05/06 22:13:12;;;;;;;4.30;3.67;;;;;;;;;;12482298;28;20478;-81
2022/05/06 22:19:14;;;;;;;4.40;4.00;;;;;;;;;;12481231;28;20387;-83
2022/05/06 22:25:16;;;;;;;5.20;4.70;;;;;;;;;;12495366;28;20045;-82
2022/05/06 22:31:18;;;;;;;4.63;4.22;;;;;;;;;;12496217;28;20295;-82
2022/05/06 22:37:20;;;;;;;5.43;4.93;;;;;;;;;;12502396;28;20052;-81
2022/05/06 22:49:49;;;;;;;6.18;4.00;;;;;;;;;;12478881;28;20060;-81
2022/05/06 22:55:51;;;;;;;4.60;3.57;;;;;;;;;;12500073;28;20050;-81
2022/05/06 23:01:53;;;;;;;4.83;4.33;;;;;;;;;;12500758;28;20041;-81
2022/05/06 23:07:55;;;;;;;4.45;3.63;;;;;;;;;;12518781;28;20044;-81
2022/05/06 23:13:57;;;;;;;5.63;4.15;;;;;;;;;;12516774;28;20045;-81
2022/05/06 23:19:59;;;;;;;4.37;3.97;;;;;;;;;;12517492;28;20057;-81
2022/05/06 23:26:01;;;;;;;3.97;3.60;;;;;;;;;;12516538;28;20049;-81
2022/05/06 23:32:03;;;;;;;3.75;3.40;;;;;;;;;;12516810;28;20041;-82
2022/05/06 23:38:06;;;;;;;3.60;3.23;;;;;;;;;;12494585;28;20025;-81
2022/05/06 23:44:09;;;;;;;3.80;3.40;;;;;;;;;;12492189;28;20398;-82
2022/05/06 23:50:11;;;;;;;3.58;3.28;;;;;;;;;;12495678;28;20037;-82
2022/05/06 23:56:12;;;;;;;3.58;3.22;;;;;;;;;;12511543;28;20037;-82
